Ever Diamond — 3FQS8 — position and weather

sailwx.info

Track history (hours):
 
Tides and Currents Weather Stations Pressure Air Temp Water Temp Dewpoint Dewpoint Depression Visibility Wind Speed Wind Dir Waves Ship Positions

Ever Diamond

Last reported at 2017-Feb-22 19:30 UTC. Time now 2017-Feb-28 05:40 UTC.
Position N 01°15' E 104°05'.

Type: Ship (hazmat cat D). MMSI: 354893000.

Date/timePositionNaut miles runAvg speedWind from/ knotsBaromVisibWave heightAir tempDewpointWater temp
2017-Feb-22 19:30N 01°15' E 104°05'1112.1
2017-Feb-22 18:33N 01°13' E 103°54'7 7.1
2017-Feb-22 17:33N 01°14' E 103°47'3 2.8
2017-Feb-22 16:33N 01°16' E 103°46'0 0.0
2017-Feb-22 15:33N 01°16' E 103°46'0 0.0
2017-Feb-22 14:33N 01°16' E 103°46'0 0.1
2017-Feb-22 13:33N 01°16' E 103°46'0 0.1
2017-Feb-22 12:33N 01°16' E 103°46'0 0.1
2017-Feb-22 11:33N 01°16' E 103°46'2 1.9
2017-Feb-22 10:34N 01°15' E 103°45'9 9.3
2017-Feb-22 09:33N 01°13' E 103°36'10 9.4
2017-Feb-22 08:33N 01°11' E 103°27'4816.1
2017-Feb-22 05:33N 01°38' E 102°48'1513.7
2017-Feb-22 04:28N 01°44' E 102°34'1313.8
2017-Feb-22 03:33N 01°50' E 102°23'  
Track history (hours):
 
Tides and Currents Weather Stations Pressure Air Temp Water Temp Dewpoint Dewpoint Depression Visibility Wind Speed Wind Dir Waves Ship Positions

Ever Diamond

Last reported at 2017-Feb-22 19:30 UTC. Time now 2017-Feb-28 05:40 UTC.
Position N 01°15' E 104°05'.

Type: Ship (hazmat cat D). MMSI: 354893000.

Date/timePositionNaut miles runAvg speedWind from/ knotsBaromVisibWave heightAir tempDewpointWater temp
2017-Feb-22 19:30N 01°15' E 104°05'1112.1
2017-Feb-22 18:33N 01°13' E 103°54'7 7.1
2017-Feb-22 17:33N 01°14' E 103°47'3 2.8
2017-Feb-22 16:33N 01°16' E 103°46'0 0.0
2017-Feb-22 15:33N 01°16' E 103°46'0 0.0
2017-Feb-22 14:33N 01°16' E 103°46'0 0.1
2017-Feb-22 13:33N 01°16' E 103°46'0 0.1
2017-Feb-22 12:33N 01°16' E 103°46'0 0.1
2017-Feb-22 11:33N 01°16' E 103°46'2 1.9
2017-Feb-22 10:34N 01°15' E 103°45'9 9.3
2017-Feb-22 09:33N 01°13' E 103°36'10 9.4
2017-Feb-22 08:33N 01°11' E 103°27'4816.1
2017-Feb-22 05:33N 01°38' E 102°48'1513.7
2017-Feb-22 04:28N 01°44' E 102°34'1313.8
2017-Feb-22 03:33N 01°50' E 102°23'  

Dump ship's entire track history